SEBI

Registration No.

INH000000305

Ip Address Lookup

So far visitors:

customizable counter

TRIAL

TRIAL

SEND SMS FOR TRIAL

EQUITY - COMMODITY OR BOTH

TO

 09920033678

AND GET TRIAL

 


Information: COPPER (MCX): LOT SIZE CHANGED TO 2500 from 1000 (from JUL CONTRACT)

SEBI Registration No.: INH000000305 *****

* Commodity: 9500/month * Equity: 6000/month


* Gold Package: 7000 * Gold-Silver Package: 8100
*Crude-NG-Copper-Nickel Package: 6000


To See Past Performance, Click Here

For TRIAL / Registration,

click here

Past Performance >> Equity Tips
 
Search
 
Entry Start Date Entry End Date
Exit Start Date Exit End Date
Scrip Name Contract
Package
 

Packages: Precious Metals - Energy and Base Metals - Profit is calculated on basis of 1 lot per call

Package: Equity calls: Profit is calculated as follows:

1. If the scrip is in F & O then 1 lot is counted otherwise

2. Trade of Rs.1,50,000/- per call is counted.

 
Page: ( 1 2 3 4 5 6 7 8 9 10 11 12 13 14 15 16 17 18 19 20 21 22 23 24 25 26 27 28 29 30 31 32 33 34 35 36 37 38 39 40 41 42 43 44 45 46 47 48 49 50 51 52 53 54 55 56 57 58 59 60 61 62 63 64 65 66 67 68 69 70 71 72 73 74 75 76 77 78 79 80 81 82 83 84 85 86 87 88 89 90 91 92 93 94 95 96 97 98 99 100 101 102 103 104 105 106 107 108 109 110 111 112 113 114 ) [Current Page: 62]
Displaying 4576 to 4650   Calls
Entry Date Type Scrip Entry Price (Rs) T1
(Rs)
T2
(Rs)
T3
(Rs)
Stop Loss
(Rs)
Exit Date Exit Rate
(Rs)
Profit
(Rs)
 
10-12-13 Buy Above TATA STEEL 423 426 430 435 420 10-12-13 420 -3000.00 More
09-12-13 Sell Below PNB MARCH 120 CALL 563 558 552 --- 568 09-12-13 559.50 1750.00 More
09-12-13 Sell Below BANK NIFTY 12150 12100 12050 11950 12230 09-12-13 12070 2000.00 More
09-12-13 Sell Below NIFTY 6380 6360 6340 6320 6410 09-12-13 6380 0.00 More
09-12-13 Buy Above NIFTY 6410 6430 6450 6470 6380 09-12-13 6380 -1500.00 More
09-12-13 Buy NTPC 152 155 158 --- 149 09-12-13 155.70 7400.00 More
09-12-13 Buy BIOCON 406 410 414 418 403 09-12-13 409 3000.00 More
06-12-13 Buy Above BANK NIFTY 11710 11780 11830 11900 11640 06-12-13 11815 2625.00 More
06-12-13 Buy Above NIFTY 6295 6315 6325 6350 6270 06-12-13 6315 1000.00 More
06-12-13 Sell Below ARVIND 128 126 124 --- 130 06-12-13 130 -8000.00 More
06-12-13 Sell Below TECH MAH 1690 1680 1670 --- 1700 06-12-13 1700 -2500.00 More
05-12-13 Buy NIFTY 6315 6340 6360 6380 6290 05-12-13 6290 -1250.00 More
05-12-13 Sell Below NIFTY 6290 6260 6240 6220 6315 05-12-13 6270 1000.00 More
05-12-13 Buy BHEL 164.50 170 174 178 161 09-12-13 175.50 22000.00 More
05-12-13 Buy CESC 394 400 405 --- 390 05-12-13 397 3000.00 More
05-12-13 Buy Above Adani Power 40 41.50 42 43 38.50 06-12-13 40.60 4800.00 More
04-12-13 Buy Above BANK NIFTY 11270 11320 11380 11450 11200 04-12-13 11200 -1750.00 More
04-12-13 Sell Below BANK NIFTY 11200 11130 11080 11000 11270 04-12-13 11270 -1750.00 More
04-12-13 Buy Above NIFTY 6235 6255 6275 6300 6210 04-12-13 6253 900.00 More
04-12-13 Sell Below NIFTY 6210 6190 6170 6150 6235 04-12-13 6185 1250.00 More
04-12-13 Buy MCLeod Russel 304 310 315 --- 298 04-12-13 298 -6000.00 More
04-12-13 Buy Above Dish TV 58.50 60 61 62 56.50 05-12-13 62 14000.00 More
03-12-13 Buy Above AXIS BANK 1200 1215 1225 1260 1185 05-12-13 1257 14250.00 More
03-12-13 Buy Above BANK NIFTY 11350 11410 11470 11550 11270 03-12-13 11270 -2000.00 More
03-12-13 Sell Below BANK NIFTY 11270 11200 11150 11050 11350 03-12-13 11300 -750.00 More
03-12-13 Buy Above NIFTY 6255 6270 6290 6310 6225 03-12-13 6255 0.00 More
03-12-13 Buy Above M&M 965 975 985 995 950 04-12-13 950 -3750.00 More
03-12-13 Buy Above JSWSteel 940 950 960 970 930 05-12-13 954 7000.00 More
02-12-13 Buy Above ADANI ENT 265 270 278 282 260 06-12-13 279 14000.00 More
02-12-13 Buy Above BANK NIFTY 11370 11430 11500 11600 11300 02-12-13 11430 1500.00 More
02-12-13 Buy NIFTY 6245 6265 6285 6310 6220 02-12-13 6270 1250.00 More
02-12-13 Buy Above TATA STEEL 404 406 410 415 400 03-12-13 415 11000.00 More
02-12-13 Buy PETRONET 135 140 145 --- 130 03-12-13 138 6000.00 More
02-12-13 Buy Above 1055 1065 1075 1085 1040 03-12-13 1085 11250.00 More
29-11-13 Sell SBI 1829 1810 1800 1790 1845 02-12-13 1845 -2000.00 More
29-11-13 Sell BANK NIFTY 11190 11120 11050 10920 11270 29-11-13 11270 -2000.00 More
29-11-13 Buy Above VOLTAS 113 116 120 --- 109 05-12-13 119 24000.00 More
29-11-13 Buy NIFTY 6165 6180 6200 6240 6145 29-11-13 6240 3750.00 More
28-11-13 Sell Below BANK NIFTY 10960 10870 10820 10760 11040 28-11-13 10850 2750.00 More
28-11-13 Sell Below NIFTY 6090 6070 6050 6030 6120 28-11-13 6065 1250.00 More
28-11-13 Buy 168 170 172 --- 166 28-11-13 170 4000.00 More
28-11-13 Buy Above SIEMENS 625 635 645 --- 617 29-11-13 633 4000.00 More
27-11-13 Sell BANK NIFTY 10875 10800 10700 10600 10950 27-11-13 10875 0.00 More
27-11-13 Sell NIFTY 6060 6040 6020 6000 6085 27-11-13 6040 1000.00 More
27-11-13 Sell Below ICICI BANK 1040 1030 1020 1010 1050 28-11-13 1050 -2500.00 More
27-11-13 Sell LICHSGFIN 206 202 198 --- 210 27-11-13 201 5000.00 More
27-11-13 Sell Below CIPLA 384 380 375 --- 388 28-11-13 380 2000.00 More
26-11-13 Buy Above BANK NIFTY 11070 11150 11200 11300 11000 26-11-13 11150 2000.00 More
26-11-13 Sell Below BANK NIFTY 11000 10930 10870 10800 11070 26-11-13 10920 2000.00 More
26-11-13 Sell Below NIFTY 6095 6075 6055 6040 6125 26-11-13 6070 1250.00 More
26-11-13 Sell Below ARVIND 121 118 115 --- 124 27-11-13 119.70 5200.00 More
26-11-13 Buy 1007 1015 1025 1035 990 28-11-13 1028 7875.00 More
26-11-13 Buy BHEL 145.50 150 154 158 141 28-11-13 152.50 14000.00 More
25-11-13 Buy BANK NIFTY 10935 11000 11050 11100 10860 25-11-13 11100 4125.00 More
25-11-13 Buy Above NIFTY 6085 6105 6120 6140 6060 25-11-13 6140 2750.00 More
25-11-13 Buy MARUTI 1656 1665 1675 1685 1643 25-11-13 1685 7250.00 More
25-11-13 Buy 331 334 338 --- 328 25-11-13 334 3000.00 More
25-11-13 Buy TATA STEEL 395 400 405 --- 390 25-11-13 399.50 4500.00 More
22-11-13 Buy DABUR 162 164 166 168 160 22-11-13 160 -4000.00 More
22-11-13 Sell Below BANK NIFTY 10760 10700 10640 10570 10820 22-11-13 10820 -1500.00 More
22-11-13 Sell Below CIPLA 385 380 376 372 389 25-11-13 389 -2000.00 More
22-11-13 Sell Below HCL TECH 1055 1045 1035 1025 1070 25-11-13 1070 -3750.00 More
22-11-13 Sell Below NIFTY 6025 6000 5980 5960 6050 22-11-13 6050 -1250.00 More
22-11-13 Buy Above NIFTY 6050 6070 6090 6120 6025 22-11-13 6025 -1250.00 More
22-11-13 Buy 960 970 977 --- 950 22-11-13 950 -3750.00 More
21-11-13 Sell Below 973 965 955 --- 982 21-11-13 956 6375.00 More
21-11-13 Sell BANK NIFTY 10850 10800 10740 10680 10920 21-11-13 10690 4000.00 More
21-11-13 Sell NIFTY 6095 6080 6060 6000 6115 21-11-13 6010 4250.00 More
21-11-13 Sell SBI 1784 1770 1750 --- 1805 21-11-13 1760 3000.00 More
20-11-13 Buy Above BANK NIFTY 11160 11220 11300 11400 11070 20-11-13 11205 1125.00 More
20-11-13 Sell Below BANK NIFTY 11070 11000 10930 10850 11160 20-11-13 11160 -2250.00 More
20-11-13 Sell Below NIFTY 6200 6180 6160 6140 6225 20-11-13 6225 -1250.00 More
20-11-13 Buy Above NIFTY 6225 6250 6270 6290 6200 20-11-13 6200 -1250.00 More
20-11-13 Buy Above PFC 157 160 162 165 154 20-11-13 158.90 3800.00 More
20-11-13 Buy Above HINDALCO 125 127 129 130 122 20-11-13 122 -6000.00 More
Page wise profit 188225.00 Rs
Profit 27346435.50 Rs
TRIAL

TRIAL

SEND SMS FOR TRIAL

EQUITY - COMMODITY OR BOTH

TO

 09920033678

AND GET TRIAL